Pagrindinis puslapis
METAR-TAF:

METAR-TAF

Oro uostai :

Sianas, Kinija

platuma: 34-26N, ilguma: 108-45E, Aukštis: 479 m

Dabartinis oras

Ataskaita buvo paskelbta 39 minutes, ne 23:00 UTC
Vėjas 4 kt iš Vakarų/Pietvakarių
Temperatūra 15°C
Drėgmė 100%
Slėgis 1022 hPa
Matomumas: 2800 m
rūkana

METAR: ZLXY 192300Z 24002MPS 2800 BR NSC 15/15 Q1022 BECMG TL0050 3000 RMK HZ

Laikas: 07:39 (23:39 UTC)

Prognozė

Ataskaita buvo paskelbta 4 valandos ir 28 minutes, ne 19:11 UTC
Prognozė galioja nuo 20 metu 00 UTC su 20 metu 24 UTC
Vėjas 6 kt iš Vakarų/Pietvakarių
Matomumas: 3000 m
rūkana

TAF: ZLXY 191911Z 2000/2024 24003MPS 3000 BR NSC TX25/2008Z TN14/2022Z

Orai ataskaitas ir orų prognozės (METAR, TAF).

turimą stotys yra geltonos ir raudonos taškus žemėlapyje.

Perkelti pele per norėdami pamatyti stoties vardą.

Tada spustelėkite, norėdami matyti oro stebėjimo ir prognozės.

Norėdami pakeisti žemėlapį: spustelėkite ant žalios mygtukų su juodo kryžiaus žemyn,; žalią mygtuką su brūkšneliu, jei norite nutolinti; arba žalių rodyklių gretimoms žemėlapius.


METAR-TAF: